sensor_id;sensor_type;location;lat;lon;timestamp;pressure;altitude;pressure_sealevel;temperature;humidity
13553;BME280;6847;48.830;9.116;2023-06-14T00:02:14;97412.97;;;19.06;30.13
13553;BME280;6847;48.830;9.116;2023-06-14T00:04:42;97393.75;;;18.81;30.18
13553;BME280;6847;48.830;9.116;2023-06-14T00:07:13;97410.81;;;18.87;30.92
13553;BME280;6847;48.830;9.116;2023-06-14T00:09:43;97419.59;;;18.80;30.50
13553;BME280;6847;48.830;9.116;2023-06-14T00:12:11;97419.03;;;18.75;30.79
13553;BME280;6847;48.830;9.116;2023-06-14T00:14:38;97415.72;;;18.69;30.80
13553;BME280;6847;48.830;9.116;2023-06-14T00:17:05;97416.06;;;18.68;31.20
13553;BME280;6847;48.830;9.116;2023-06-14T00:19:32;97423.69;;;18.62;31.21
13553;BME280;6847;48.830;9.116;2023-06-14T00:22:01;97364.19;;;18.18;31.48
13553;BME280;6847;48.830;9.116;2023-06-14T00:24:30;97432.22;;;18.48;31.09
13553;BME280;6847;48.830;9.116;2023-06-14T00:27:03;97426.13;;;18.43;31.65
13553;BME280;6847;48.830;9.116;2023-06-14T00:29:30;97337.84;;;17.80;31.66
13553;BME280;6847;48.830;9.116;2023-06-14T00:31:56;97426.34;;;18.38;31.59
13553;BME280;6847;48.830;9.116;2023-06-14T00:34:24;97428.16;;;18.34;31.69
13553;BME280;6847;48.830;9.116;2023-06-14T00:36:54;97424.97;;;18.32;31.94
13553;BME280;6847;48.830;9.116;2023-06-14T00:39:23;97420.97;;;18.29;31.61
13553;BME280;6847;48.830;9.116;2023-06-14T00:41:50;97421.97;;;18.25;31.78
13553;BME280;6847;48.830;9.116;2023-06-14T00:44:24;97419.56;;;18.23;31.79
13553;BME280;6847;48.830;9.116;2023-06-14T00:46:53;97420.59;;;18.19;32.24
13553;BME280;6847;48.830;9.116;2023-06-14T00:49:23;97425.16;;;18.15;32.33
13553;BME280;6847;48.830;9.116;2023-06-14T00:51:55;97417.63;;;18.11;32.31
13553;BME280;6847;48.830;9.116;2023-06-14T00:54:22;97418.75;;;18.10;32.16
13553;BME280;6847;48.830;9.116;2023-06-14T00:56:49;97412.19;;;18.03;32.73
13553;BME280;6847;48.830;9.116;2023-06-14T00:59:15;97411.94;;;17.96;32.57
13553;BME280;6847;48.830;9.116;2023-06-14T01:01:45;97244.75;;;16.73;32.93
13553;BME280;6847;48.830;9.116;2023-06-14T01:04:15;97420.06;;;17.71;32.97
13553;BME280;6847;48.830;9.116;2023-06-14T01:06:47;97365.63;;;17.28;32.82
13553;BME280;6847;48.830;9.116;2023-06-14T01:09:20;97412.75;;;17.55;32.91
13553;BME280;6847;48.830;9.116;2023-06-14T01:11:58;97417.41;;;17.54;33.21
13553;BME280;6847;48.830;9.116;2023-06-14T01:14:28;97422.78;;;17.51;33.13
13553;BME280;6847;48.830;9.116;2023-06-14T01:16:58;97423.44;;;17.48;33.21
13553;BME280;6847;48.830;9.116;2023-06-14T01:19:28;97424.91;;;17.45;33.33
13553;BME280;6847;48.830;9.116;2023-06-14T01:21:58;97306.41;;;16.61;33.62
13553;BME280;6847;48.830;9.116;2023-06-14T01:24:28;97428.66;;;17.41;33.46
13553;BME280;6847;48.830;9.116;2023-06-14T01:26:58;97426.09;;;17.35;33.62
13553;BME280;6847;48.830;9.116;2023-06-14T01:29:28;97424.69;;;17.29;33.39
13553;BME280;6847;48.830;9.116;2023-06-14T01:31:59;97426.47;;;17.25;33.75
13553;BME280;6847;48.830;9.116;2023-06-14T01:34:28;97420.09;;;17.21;33.92
13553;BME280;6847;48.830;9.116;2023-06-14T01:36:55;97412.75;;;17.13;34.08
13553;BME280;6847;48.830;9.116;2023-06-14T01:39:23;97269.50;;;16.09;33.85
13553;BME280;6847;48.830;9.116;2023-06-14T01:41:51;97416.94;;;17.11;33.89
13553;BME280;6847;48.830;9.116;2023-06-14T01:44:18;97419.50;;;17.07;34.22
13553;BME280;6847;48.830;9.116;2023-06-14T01:46:48;97272.56;;;16.07;34.53
13553;BME280;6847;48.830;9.116;2023-06-14T01:49:15;97424.88;;;17.04;34.36
13553;BME280;6847;48.830;9.116;2023-06-14T01:51:44;97428.38;;;17.04;34.45
13553;BME280;6847;48.830;9.116;2023-06-14T01:54:11;97420.84;;;17.01;34.61
13553;BME280;6847;48.830;9.116;2023-06-14T01:56:41;97416.69;;;16.95;34.57
13553;BME280;6847;48.830;9.116;2023-06-14T01:59:11;97422.16;;;16.95;34.77
13553;BME280;6847;48.830;9.116;2023-06-14T02:01:37;97290.72;;;16.12;34.67
13553;BME280;6847;48.830;9.116;2023-06-14T02:04:05;97420.56;;;16.94;34.63
13553;BME280;6847;48.830;9.116;2023-06-14T02:06:33;97371.69;;;16.63;34.86
13553;BME280;6847;48.830;9.116;2023-06-14T02:09:01;97423.63;;;16.92;34.84
13553;BME280;6847;48.830;9.116;2023-06-14T02:11:30;97420.75;;;16.89;34.98
13553;BME280;6847;48.830;9.116;2023-06-14T02:13:57;97444.41;;;16.85;34.93
13553;BME280;6847;48.830;9.116;2023-06-14T02:16:26;97433.34;;;16.81;35.00
13553;BME280;6847;48.830;9.116;2023-06-14T02:18:55;97430.63;;;16.73;35.40
13553;BME280;6847;48.830;9.116;2023-06-14T02:21:22;97431.47;;;16.64;35.56
13553;BME280;6847;48.830;9.116;2023-06-14T02:23:48;97429.22;;;16.58;35.64
13553;BME280;6847;48.830;9.116;2023-06-14T02:26:15;97432.94;;;16.53;35.57
13553;BME280;6847;48.830;9.116;2023-06-14T02:28:42;97432.28;;;16.48;35.58
13553;BME280;6847;48.830;9.116;2023-06-14T02:31:09;97426.22;;;16.42;35.69
13553;BME280;6847;48.830;9.116;2023-06-14T02:33:40;97426.53;;;16.41;35.79
13553;BME280;6847;48.830;9.116;2023-06-14T02:36:08;97430.72;;;16.38;35.78
13553;BME280;6847;48.830;9.116;2023-06-14T02:38:35;97425.44;;;16.33;35.90
13553;BME280;6847;48.830;9.116;2023-06-14T02:41:01;97431.72;;;16.25;36.06
13553;BME280;6847;48.830;9.116;2023-06-14T02:43:29;97425.31;;;16.21;36.03
13553;BME280;6847;48.830;9.116;2023-06-14T02:45:59;97316.84;;;15.49;36.21
13553;BME280;6847;48.830;9.116;2023-06-14T02:48:27;97260.09;;;15.08;36.47
13553;BME280;6847;48.830;9.116;2023-06-14T02:50:56;97431.75;;;16.08;36.25
13553;BME280;6847;48.830;9.116;2023-06-14T02:53:24;97401.13;;;15.85;36.38
13553;BME280;6847;48.830;9.116;2023-06-14T02:55:50;97347.97;;;15.48;36.38
13553;BME280;6847;48.830;9.116;2023-06-14T02:58:17;97295.84;;;15.15;36.57
13553;BME280;6847;48.830;9.116;2023-06-14T03:00:44;97268.44;;;14.94;36.63
13553;BME280;6847;48.830;9.116;2023-06-14T03:03:12;97436.75;;;15.88;36.83
13553;BME280;6847;48.830;9.116;2023-06-14T03:05:46;97431.47;;;15.83;37.26
13553;BME280;6847;48.830;9.116;2023-06-14T03:08:16;97425.03;;;15.79;37.05
13553;BME280;6847;48.830;9.116;2023-06-14T03:10:45;97428.09;;;15.69;36.97
13553;BME280;6847;48.830;9.116;2023-06-14T03:13:17;97439.50;;;15.71;37.18
13553;BME280;6847;48.830;9.116;2023-06-14T03:15:46;97259.75;;;14.58;37.31
13553;BME280;6847;48.830;9.116;2023-06-14T03:18:15;97375.56;;;15.29;37.47
13553;BME280;6847;48.830;9.116;2023-06-14T03:20:42;97399.47;;;15.49;37.64
13553;BME280;6847;48.830;9.116;2023-06-14T03:23:10;97401.09;;;15.50;37.14
13553;BME280;6847;48.830;9.116;2023-06-14T03:25:39;97265.22;;;14.66;37.12
13553;BME280;6847;48.830;9.116;2023-06-14T03:28:07;97447.03;;;15.83;37.51
13553;BME280;6847;48.830;9.116;2023-06-14T03:30:34;97450.56;;;15.83;37.54
13553;BME280;6847;48.830;9.116;2023-06-14T03:33:02;97446.41;;;15.86;37.37
13553;BME280;6847;48.830;9.116;2023-06-14T03:35:31;97454.25;;;15.87;37.62
13553;BME280;6847;48.830;9.116;2023-06-14T03:38:07;97379.75;;;15.35;37.97
13553;BME280;6847;48.830;9.116;2023-06-14T03:40:34;97343.34;;;15.23;37.77
13553;BME280;6847;48.830;9.116;2023-06-14T03:43:04;97452.00;;;15.89;37.90
13553;BME280;6847;48.830;9.116;2023-06-14T03:45:31;97386.16;;;15.48;37.90
13553;BME280;6847;48.830;9.116;2023-06-14T03:48:00;97459.06;;;15.90;37.99
13553;BME280;6847;48.830;9.116;2023-06-14T03:50:28;97330.81;;;15.04;37.95
13553;BME280;6847;48.830;9.116;2023-06-14T03:52:55;97477.56;;;15.94;37.82
13553;BME280;6847;48.830;9.116;2023-06-14T03:55:22;97307.22;;;14.91;38.07
13553;BME280;6847;48.830;9.116;2023-06-14T03:57:51;97473.53;;;16.00;37.93
13553;BME280;6847;48.830;9.116;2023-06-14T04:00:20;97466.63;;;16.02;37.96
13553;BME280;6847;48.830;9.116;2023-06-14T04:02:48;97472.88;;;16.03;37.98
13553;BME280;6847;48.830;9.116;2023-06-14T04:05:15;97479.47;;;16.02;37.80
13553;BME280;6847;48.830;9.116;2023-06-14T04:07:44;97482.19;;;16.02;38.07
13553;BME280;6847;48.830;9.116;2023-06-14T04:10:12;97488.28;;;15.99;38.34
13553;BME280;6847;48.830;9.116;2023-06-14T04:12:38;97483.63;;;15.99;38.48
13553;BME280;6847;48.830;9.116;2023-06-14T04:15:09;97472.56;;;15.96;38.31
13553;BME280;6847;48.830;9.116;2023-06-14T04:17:40;97484.13;;;16.10;38.68
13553;BME280;6847;48.830;9.116;2023-06-14T04:20:08;97493.72;;;16.16;38.33
13553;BME280;6847;48.830;9.116;2023-06-14T04:22:38;97497.59;;;16.23;38.60
13553;BME280;6847;48.830;9.116;2023-06-14T04:25:08;97279.97;;;14.91;38.34
13553;BME280;6847;48.830;9.116;2023-06-14T04:27:35;97225.78;;;14.64;38.55
13553;BME280;6847;48.830;9.116;2023-06-14T04:30:04;97497.25;;;16.42;38.39
13553;BME280;6847;48.830;9.116;2023-06-14T04:32:39;97506.88;;;16.48;38.55
13553;BME280;6847;48.830;9.116;2023-06-14T04:35:09;97502.19;;;16.57;38.44
13553;BME280;6847;48.830;9.116;2023-06-14T04:37:37;97408.28;;;16.07;38.47
13553;BME280;6847;48.830;9.116;2023-06-14T04:40:12;97502.00;;;16.80;38.50
13553;BME280;6847;48.830;9.116;2023-06-14T04:42:53;97438.25;;;16.50;38.33
13553;BME280;6847;48.830;9.116;2023-06-14T04:45:21;97232.16;;;15.28;38.66
13553;BME280;6847;48.830;9.116;2023-06-14T04:47:53;97504.78;;;17.09;38.43
13553;BME280;6847;48.830;9.116;2023-06-14T04:50:22;97512.16;;;17.17;38.72
13553;BME280;6847;48.830;9.116;2023-06-14T04:52:52;97512.41;;;17.24;38.48
13553;BME280;6847;48.830;9.116;2023-06-14T04:55:20;97514.97;;;17.29;38.43
13553;BME280;6847;48.830;9.116;2023-06-14T04:57:47;97521.53;;;17.37;38.49
13553;BME280;6847;48.830;9.116;2023-06-14T05:00:15;97526.97;;;17.46;38.56
13553;BME280;6847;48.830;9.116;2023-06-14T05:02:42;97522.91;;;17.52;38.61
13553;BME280;6847;48.830;9.116;2023-06-14T05:05:10;97528.66;;;17.59;38.70
13553;BME280;6847;48.830;9.116;2023-06-14T05:07:36;97527.84;;;17.67;38.44
13553;BME280;6847;48.830;9.116;2023-06-14T05:10:06;97534.72;;;17.73;38.36
13553;BME280;6847;48.830;9.116;2023-06-14T05:12:35;97474.97;;;17.46;38.64
13553;BME280;6847;48.830;9.116;2023-06-14T05:15:02;97534.63;;;17.90;38.75
13553;BME280;6847;48.830;9.116;2023-06-14T05:17:30;97536.47;;;17.98;38.62
13553;BME280;6847;48.830;9.116;2023-06-14T05:19:56;97536.09;;;18.08;38.61
13553;BME280;6847;48.830;9.116;2023-06-14T05:22:25;97534.06;;;18.18;38.29
13553;BME280;6847;48.830;9.116;2023-06-14T05:24:52;97512.81;;;18.15;38.76
13553;BME280;6847;48.830;9.116;2023-06-14T05:27:19;97541.66;;;18.33;38.73
13553;BME280;6847;48.830;9.116;2023-06-14T05:29:45;97533.38;;;18.41;38.42
13553;BME280;6847;48.830;9.116;2023-06-14T05:32:12;97541.63;;;18.54;38.19
13553;BME280;6847;48.830;9.116;2023-06-14T05:34:38;97545.94;;;18.63;38.18
13553;BME280;6847;48.830;9.116;2023-06-14T05:37:06;97548.25;;;18.73;38.57
13553;BME280;6847;48.830;9.116;2023-06-14T05:39:34;97548.97;;;18.82;38.52
13553;BME280;6847;48.830;9.116;2023-06-14T05:42:00;97546.13;;;18.91;38.32
13553;BME280;6847;48.830;9.116;2023-06-14T05:44:27;97551.16;;;19.01;38.46
13553;BME280;6847;48.830;9.116;2023-06-14T05:46:53;97452.75;;;18.42;38.52
13553;BME280;6847;48.830;9.116;2023-06-14T05:49:20;97553.97;;;19.26;38.27
13553;BME280;6847;48.830;9.116;2023-06-14T05:51:46;97550.44;;;19.37;38.06
13553;BME280;6847;48.830;9.116;2023-06-14T05:54:14;97552.72;;;19.47;38.13
13553;BME280;6847;48.830;9.116;2023-06-14T05:56:44;97549.53;;;19.57;38.12
13553;BME280;6847;48.830;9.116;2023-06-14T05:59:10;97553.31;;;19.65;38.04
13553;BME280;6847;48.830;9.116;2023-06-14T06:01:37;97547.22;;;19.72;38.60
13553;BME280;6847;48.830;9.116;2023-06-14T06:04:05;97557.06;;;19.85;38.43
13553;BME280;6847;48.830;9.116;2023-06-14T06:06:33;97546.75;;;19.94;38.31
13553;BME280;6847;48.830;9.116;2023-06-14T06:09:00;97498.25;;;19.74;38.49
13553;BME280;6847;48.830;9.116;2023-06-14T06:11:30;97545.31;;;20.12;38.21
13553;BME280;6847;48.830;9.116;2023-06-14T06:14:01;97543.91;;;20.18;38.29
13553;BME280;6847;48.830;9.116;2023-06-14T06:16:29;97557.06;;;20.37;38.31
13553;BME280;6847;48.830;9.116;2023-06-14T06:19:13;97559.88;;;20.53;37.99
13553;BME280;6847;48.830;9.116;2023-06-14T06:21:52;97568.09;;;20.65;38.22
13553;BME280;6847;48.830;9.116;2023-06-14T06:24:21;97560.56;;;20.78;37.93
13553;BME280;6847;48.830;9.116;2023-06-14T06:26:47;97561.75;;;20.92;37.87
13553;BME280;6847;48.830;9.116;2023-06-14T06:29:21;97573.13;;;21.06;37.90
13553;BME280;6847;48.830;9.116;2023-06-14T06:31:50;97568.03;;;21.21;37.86
13553;BME280;6847;48.830;9.116;2023-06-14T06:34:19;97573.00;;;21.31;37.88
13553;BME280;6847;48.830;9.116;2023-06-14T06:36:45;97571.59;;;21.37;37.92
13553;BME280;6847;48.830;9.116;2023-06-14T06:39:14;97570.69;;;21.49;37.84
13553;BME280;6847;48.830;9.116;2023-06-14T06:41:44;97568.91;;;21.56;37.80
13553;BME280;6847;48.830;9.116;2023-06-14T06:44:12;97573.00;;;21.62;37.82
13553;BME280;6847;48.830;9.116;2023-06-14T06:46:41;97551.69;;;21.59;37.72
13553;BME280;6847;48.830;9.116;2023-06-14T06:49:08;97569.59;;;21.85;37.89
13553;BME280;6847;48.830;9.116;2023-06-14T06:51:37;97580.97;;;21.99;37.76
13553;BME280;6847;48.830;9.116;2023-06-14T06:54:03;97589.13;;;22.11;37.68
13553;BME280;6847;48.830;9.116;2023-06-14T06:56:31;97588.63;;;22.25;37.56
13553;BME280;6847;48.830;9.116;2023-06-14T06:58:58;97600.69;;;22.36;37.47
13553;BME280;6847;48.830;9.116;2023-06-14T07:01:28;97517.91;;;21.97;37.40
13553;BME280;6847;48.830;9.116;2023-06-14T07:03:59;97593.69;;;22.58;37.45
13553;BME280;6847;48.830;9.116;2023-06-14T07:06:25;97599.84;;;22.70;37.29
13553;BME280;6847;48.830;9.116;2023-06-14T07:08:53;97574.50;;;22.65;37.15
13553;BME280;6847;48.830;9.116;2023-06-14T07:11:20;97609.81;;;22.94;36.93
13553;BME280;6847;48.830;9.116;2023-06-14T07:13:48;97589.31;;;22.95;37.14
13553;BME280;6847;48.830;9.116;2023-06-14T07:16:16;97532.66;;;22.63;37.24
13553;BME280;6847;48.830;9.116;2023-06-14T07:18:47;97611.09;;;23.19;36.82
13553;BME280;6847;48.830;9.116;2023-06-14T07:21:16;97607.28;;;23.28;36.89
13553;BME280;6847;48.830;9.116;2023-06-14T07:23:43;97610.69;;;23.40;36.72
13553;BME280;6847;48.830;9.116;2023-06-14T07:26:13;97614.88;;;23.53;36.85
13553;BME280;6847;48.830;9.116;2023-06-14T07:28:40;97618.25;;;23.66;36.46
13553;BME280;6847;48.830;9.116;2023-06-14T07:31:10;97596.88;;;23.63;36.43
13553;BME280;6847;48.830;9.116;2023-06-14T07:33:39;97618.59;;;23.87;36.28
13553;BME280;6847;48.830;9.116;2023-06-14T07:36:06;97625.84;;;23.95;36.52
13553;BME280;6847;48.830;9.116;2023-06-14T07:38:37;97624.41;;;24.05;36.29
13553;BME280;6847;48.830;9.116;2023-06-14T07:41:06;97622.97;;;24.15;36.00
13553;BME280;6847;48.830;9.116;2023-06-14T07:43:33;97627.47;;;24.23;36.09
13553;BME280;6847;48.830;9.116;2023-06-14T07:46:00;97633.94;;;24.34;35.88
13553;BME280;6847;48.830;9.116;2023-06-14T07:48:27;97634.53;;;24.47;35.75
13553;BME280;6847;48.830;9.116;2023-06-14T07:50:54;97508.53;;;23.70;35.58
13553;BME280;6847;48.830;9.116;2023-06-14T07:53:21;97639.56;;;24.67;35.53
13553;BME280;6847;48.830;9.116;2023-06-14T07:55:52;97588.66;;;24.46;35.31
13553;BME280;6847;48.830;9.116;2023-06-14T07:58:19;97633.88;;;24.87;35.29
13553;BME280;6847;48.830;9.116;2023-06-14T08:00:48;97622.91;;;24.94;35.24
13553;BME280;6847;48.830;9.116;2023-06-14T08:03:17;97633.31;;;25.07;34.98
13553;BME280;6847;48.830;9.116;2023-06-14T08:05:44;97625.94;;;25.19;34.78
13553;BME280;6847;48.830;9.116;2023-06-14T08:08:11;97636.00;;;25.34;34.99
13553;BME280;6847;48.830;9.116;2023-06-14T08:10:40;97630.97;;;25.47;34.56
13553;BME280;6847;48.830;9.116;2023-06-14T08:13:11;97634.25;;;25.56;34.71
13553;BME280;6847;48.830;9.116;2023-06-14T08:15:42;97632.00;;;25.68;34.53
13553;BME280;6847;48.830;9.116;2023-06-14T08:18:09;97558.03;;;25.35;34.37
13553;BME280;6847;48.830;9.116;2023-06-14T08:20:35;97631.44;;;25.96;34.06
13553;BME280;6847;48.830;9.116;2023-06-14T08:23:04;97618.00;;;26.02;34.13
13553;BME280;6847;48.830;9.116;2023-06-14T08:25:35;97624.06;;;26.14;34.07
13553;BME280;6847;48.830;9.116;2023-06-14T08:28:01;97638.19;;;26.50;33.86
13553;BME280;6847;48.830;9.116;2023-06-14T08:30:29;97641.03;;;26.68;33.93
13553;BME280;6847;48.830;9.116;2023-06-14T08:32:56;97646.25;;;26.83;33.60
13553;BME280;6847;48.830;9.116;2023-06-14T08:35:23;97640.81;;;26.98;33.48
13553;BME280;6847;48.830;9.116;2023-06-14T08:37:50;97647.28;;;27.44;33.43
13553;BME280;6847;48.830;9.116;2023-06-14T08:40:20;97655.25;;;28.77;32.12
13553;BME280;6847;48.830;9.116;2023-06-14T08:42:51;97653.28;;;30.58;30.17
13553;BME280;6847;48.830;9.116;2023-06-14T08:45:19;97652.84;;;32.11;28.52
13553;BME280;6847;48.830;9.116;2023-06-14T08:47:50;97664.34;;;33.62;26.98
13553;BME280;6847;48.830;9.116;2023-06-14T08:50:20;97665.03;;;35.09;26.14
13553;BME280;6847;48.830;9.116;2023-06-14T08:52:52;97675.84;;;36.41;24.89
13553;BME280;6847;48.830;9.116;2023-06-14T08:55:22;97675.84;;;37.10;24.59
13553;BME280;6847;48.830;9.116;2023-06-14T08:57:54;97670.84;;;37.14;24.89
13553;BME280;6847;48.830;9.116;2023-06-14T09:00:22;97676.88;;;37.68;24.26
13553;BME280;6847;48.830;9.116;2023-06-14T09:02:51;97685.59;;;38.32;23.54
13553;BME280;6847;48.830;9.116;2023-06-14T09:05:23;97661.31;;;38.80;23.49
13553;BME280;6847;48.830;9.116;2023-06-14T09:07:51;97673.03;;;39.61;22.78
13553;BME280;6847;48.830;9.116;2023-06-14T09:10:20;97672.78;;;39.92;22.77
13553;BME280;6847;48.830;9.116;2023-06-14T09:12:48;97670.41;;;40.23;22.52
13553;BME280;6847;48.830;9.116;2023-06-14T09:15:15;97679.44;;;40.70;22.08
13553;BME280;6847;48.830;9.116;2023-06-14T09:17:58;97685.06;;;41.17;21.74
13553;BME280;6847;48.830;9.116;2023-06-14T09:20:29;97661.56;;;41.31;21.65
13553;BME280;6847;48.830;9.116;2023-06-14T09:23:05;97682.53;;;41.49;21.49
13553;BME280;6847;48.830;9.116;2023-06-14T09:25:32;97667.94;;;41.56;21.50
13553;BME280;6847;48.830;9.116;2023-06-14T09:27:59;97689.38;;;41.86;21.22
13553;BME280;6847;48.830;9.116;2023-06-14T09:30:25;97688.31;;;41.98;20.66
13553;BME280;6847;48.830;9.116;2023-06-14T09:32:52;97687.78;;;42.15;21.06
13553;BME280;6847;48.830;9.116;2023-06-14T09:35:20;97693.81;;;42.22;20.46
13553;BME280;6847;48.830;9.116;2023-06-14T09:37:47;97689.09;;;42.34;20.46
13553;BME280;6847;48.830;9.116;2023-06-14T09:40:20;97690.84;;;42.46;19.97
13553;BME280;6847;48.830;9.116;2023-06-14T09:42:47;97690.09;;;42.31;20.51
13553;BME280;6847;48.830;9.116;2023-06-14T09:45:14;97684.66;;;41.83;20.29
13553;BME280;6847;48.830;9.116;2023-06-14T09:47:45;97693.78;;;42.02;20.35
13553;BME280;6847;48.830;9.116;2023-06-14T09:50:12;97686.22;;;42.14;19.85
13553;BME280;6847;48.830;9.116;2023-06-14T09:52:44;97690.09;;;42.31;19.95
13553;BME280;6847;48.830;9.116;2023-06-14T09:55:12;97685.06;;;41.17;20.47
13553;BME280;6847;48.830;9.116;2023-06-14T09:57:41;97656.06;;;40.51;20.39
13553;BME280;6847;48.830;9.116;2023-06-14T10:00:09;97684.59;;;40.95;20.19
13553;BME280;6847;48.830;9.116;2023-06-14T10:02:42;97685.59;;;41.60;19.56
13553;BME280;6847;48.830;9.116;2023-06-14T10:05:17;97682.03;;;41.94;19.22
13553;BME280;6847;48.830;9.116;2023-06-14T10:08:03;97686.97;;;42.29;18.62
13553;BME280;6847;48.830;9.116;2023-06-14T10:10:30;97668.19;;;41.87;19.10
13553;BME280;6847;48.830;9.116;2023-06-14T10:12:58;97681.66;;;42.01;18.65
13553;BME280;6847;48.830;9.116;2023-06-14T10:15:30;97678.47;;;42.49;18.66
13553;BME280;6847;48.830;9.116;2023-06-14T10:18:06;97683.94;;;42.93;18.23
13553;BME280;6847;48.830;9.116;2023-06-14T10:20:39;97688.03;;;43.12;18.09
13553;BME280;6847;48.830;9.116;2023-06-14T10:23:10;97688.72;;;43.48;17.74
13553;BME280;6847;48.830;9.116;2023-06-14T10:25:39;97686.56;;;43.69;17.32
13553;BME280;6847;48.830;9.116;2023-06-14T10:28:18;97676.09;;;43.29;17.40
13553;BME280;6847;48.830;9.116;2023-06-14T10:31:05;97635.28;;;41.66;18.75
13553;BME280;6847;48.830;9.116;2023-06-14T10:33:32;97669.47;;;40.26;19.50
13553;BME280;6847;48.830;9.116;2023-06-14T10:39:05;97655.78;;;36.39;21.57
13553;BME280;6847;48.830;9.116;2023-06-14T10:41:35;97645.16;;;35.83;21.87
13553;BME280;6847;48.830;9.116;2023-06-14T10:44:37;97611.13;;;36.93;20.73
13553;BME280;6847;48.830;9.116;2023-06-14T10:47:07;97652.31;;;38.36;19.21
13553;BME280;6847;48.830;9.116;2023-06-14T10:49:39;97616.97;;;39.05;18.34
13553;BME280;6847;48.830;9.116;2023-06-14T10:52:09;97661.94;;;39.12;18.95
13553;BME280;6847;48.830;9.116;2023-06-14T10:55:09;97665.69;;;37.96;19.56
13553;BME280;6847;48.830;9.116;2023-06-14T10:57:39;97653.53;;;36.81;20.29
13553;BME280;6847;48.830;9.116;2023-06-14T11:00:07;97663.03;;;35.89;20.29
13553;BME280;6847;48.830;9.116;2023-06-14T11:03:31;97662.03;;;35.16;20.88
13553;BME280;6847;48.830;9.116;2023-06-14T11:06:15;97662.63;;;34.49;21.42
13553;BME280;6847;48.830;9.116;2023-06-14T11:09:09;97641.22;;;33.91;21.54
13553;BME280;6847;48.830;9.116;2023-06-14T11:11:42;97585.41;;;33.04;21.88
13553;BME280;6847;48.830;9.116;2023-06-14T11:14:10;97647.69;;;33.16;21.51
13553;BME280;6847;48.830;9.116;2023-06-14T11:16:36;97596.38;;;32.99;21.33
13553;BME280;6847;48.830;9.116;2023-06-14T11:19:03;97632.72;;;33.42;20.61
13553;BME280;6847;48.830;9.116;2023-06-14T11:21:34;97606.56;;;33.81;20.56
13553;BME280;6847;48.830;9.116;2023-06-14T11:24:10;97643.84;;;35.33;19.45
13553;BME280;6847;48.830;9.116;2023-06-14T11:26:40;97647.81;;;36.59;18.93
13553;BME280;6847;48.830;9.116;2023-06-14T11:29:19;97655.03;;;37.38;18.39
13553;BME280;6847;48.830;9.116;2023-06-14T11:31:47;97654.31;;;37.25;18.78
13553;BME280;6847;48.830;9.116;2023-06-14T11:34:22;97664.19;;;37.51;18.62
13553;BME280;6847;48.830;9.116;2023-06-14T11:36:48;97656.28;;;37.99;18.06
13553;BME280;6847;48.830;9.116;2023-06-14T11:39:14;97659.06;;;38.39;17.82
13553;BME280;6847;48.830;9.116;2023-06-14T11:41:45;97657.28;;;38.14;18.67
13553;BME280;6847;48.830;9.116;2023-06-14T11:44:13;97526.31;;;37.19;18.63
13553;BME280;6847;48.830;9.116;2023-06-14T11:46:40;97658.84;;;38.15;18.46
13553;BME280;6847;48.830;9.116;2023-06-14T11:49:07;97656.06;;;38.42;18.46
13553;BME280;6847;48.830;9.116;2023-06-14T11:51:36;97566.75;;;37.96;18.26
13553;BME280;6847;48.830;9.116;2023-06-14T11:54:04;97643.50;;;38.43;18.25
13553;BME280;6847;48.830;9.116;2023-06-14T11:56:32;97661.16;;;38.57;18.72
13553;BME280;6847;48.830;9.116;2023-06-14T11:59:02;97661.47;;;38.68;18.35
13553;BME280;6847;48.830;9.116;2023-06-14T12:01:42;97635.06;;;38.62;18.28
13553;BME280;6847;48.830;9.116;2023-06-14T12:04:13;97650.09;;;38.49;18.71
13553;BME280;6847;48.830;9.116;2023-06-14T12:06:42;97654.47;;;38.23;18.49
13553;BME280;6847;48.830;9.116;2023-06-14T12:09:22;97657.50;;;37.89;18.96
13553;BME280;6847;48.830;9.116;2023-06-14T12:12:00;97654.41;;;37.43;18.76
13553;BME280;6847;48.830;9.116;2023-06-14T12:14:30;97657.88;;;37.16;19.22
13553;BME280;6847;48.830;9.116;2023-06-14T12:17:04;97651.28;;;36.97;19.08
13553;BME280;6847;48.830;9.116;2023-06-14T12:19:41;97654.13;;;36.97;19.24
13553;BME280;6847;48.830;9.116;2023-06-14T12:22:09;97619.50;;;36.84;19.12
13553;BME280;6847;48.830;9.116;2023-06-14T12:24:36;97648.25;;;36.70;19.19
13553;BME280;6847;48.830;9.116;2023-06-14T12:27:04;97649.25;;;36.42;19.21
13553;BME280;6847;48.830;9.116;2023-06-14T12:29:35;97523.78;;;35.65;19.27
13553;BME280;6847;48.830;9.116;2023-06-14T12:32:02;97636.00;;;36.51;18.93
13553;BME280;6847;48.830;9.116;2023-06-14T12:34:28;97585.03;;;36.46;19.14
13553;BME280;6847;48.830;9.116;2023-06-14T12:36:59;97641.47;;;37.02;19.05
13553;BME280;6847;48.830;9.116;2023-06-14T12:39:25;97643.31;;;37.18;18.99
13553;BME280;6847;48.830;9.116;2023-06-14T12:41:56;97641.72;;;37.17;18.83
13553;BME280;6847;48.830;9.116;2023-06-14T12:44:23;97644.31;;;37.33;18.53
13553;BME280;6847;48.830;9.116;2023-06-14T12:46:51;97644.56;;;37.48;18.41
13553;BME280;6847;48.830;9.116;2023-06-14T12:49:19;97642.97;;;37.68;18.60
13553;BME280;6847;48.830;9.116;2023-06-14T12:51:46;97645.59;;;38.03;18.26
13553;BME280;6847;48.830;9.116;2023-06-14T12:54:16;97613.16;;;38.26;17.66
13553;BME280;6847;48.830;9.116;2023-06-14T12:56:43;97640.09;;;38.76;18.25
13553;BME280;6847;48.830;9.116;2023-06-14T12:59:10;97633.00;;;38.90;17.52
13553;BME280;6847;48.830;9.116;2023-06-14T13:01:38;97635.03;;;38.80;17.55
13553;BME280;6847;48.830;9.116;2023-06-14T13:04:09;97646.13;;;39.38;17.69
13553;BME280;6847;48.830;9.116;2023-06-14T13:06:36;97644.84;;;40.00;17.20
13553;BME280;6847;48.830;9.116;2023-06-14T13:09:03;97633.06;;;40.25;16.73
13553;BME280;6847;48.830;9.116;2023-06-14T13:11:30;97598.41;;;40.21;16.62
13553;BME280;6847;48.830;9.116;2023-06-14T13:13:56;97650.81;;;40.58;16.92
13553;BME280;6847;48.830;9.116;2023-06-14T13:16:23;97651.06;;;40.70;16.74
13553;BME280;6847;48.830;9.116;2023-06-14T13:18:50;97648.88;;;40.64;16.78
13553;BME280;6847;48.830;9.116;2023-06-14T13:21:18;97610.59;;;39.79;17.32
13553;BME280;6847;48.830;9.116;2023-06-14T13:23:44;97655.94;;;39.19;18.05
13553;BME280;6847;48.830;9.116;2023-06-14T13:26:14;97646.66;;;38.36;17.61